PWSweather.com
Personal Weather Stations
Station Observations
IROGLAN40
AalgaardNO 4330

AalgaardNO 4330

Lat: 58.773, Lon: 5.846

Elevation: 326

Station Type: Davis Vanatge Pro2

Latest ConditionsUpdated 8:10:01 PM GMT+01:01 Friday, Dec 9, 2016
Currently Today's Max Today's Min Today's Average
Temperature 46.0°F7.8°C 47.2°F8.4°C 43.0°F6.1°C 46.0°F7.8°C
Dew Point 43.5°F6.4°C 45.6°F7.6°C 42.2°F5.7°C 44.0°F6.7°C
Winds 4.6 mph ESE7.4 kmh ESE 6.9 mph NW11.1 kmh NW - 2.0 mph 3.2 kmh
Wind Gusts 5.8 mph9.3 kmh 9.2 mph14.8 kmh - -
Humidity 91% 98% 91% 93%
Pressure 29.82 in1009.8 mb 29.99 in1015.6 mb 29.82 in1009.8 mb -
Precipitation - 0.19 in4.8 mm - -
Hour Temp Dew Point Humidity Winds Wind Gusts Pressure Precip Precip Rate Daily Precip Total
08:10 PM 46.0°F7.8°C 43.5°F6.4°C 91% 4.6 mph ESE7.4 kmh ESE 5.8 mph9.3 kmh 29.82 in1009.8 mb - 0.01 in0.3 mm 0.19 in4.8 mm
08:00 PM 45.9°F7.7°C 43.4°F6.3°C 91% 4.6 mph SE7.4 kmh SE 9.2 mph14.8 kmh 29.82 in1009.8 mb - 0.02 in0.5 mm 0.18 in4.6 mm
07:50 PM 45.8°F7.7°C 43.3°F6.3°C 91% 5.8 mph SE9.3 kmh SE 9.2 mph14.8 kmh 29.82 in1009.8 mb - 0.01 in0.3 mm 0.17 in4.3 mm
07:40 PM 45.8°F7.7°C 43.3°F6.3°C 91% 5.8 mph SE9.3 kmh SE 8.1 mph13.0 kmh 29.82 in1009.8 mb - 0.02 in0.5 mm 0.16 in4.1 mm
07:30 PM 45.6°F7.6°C 43.1°F6.2°C 91% 4.6 mph SE7.4 kmh SE 6.9 mph11.1 kmh 29.83 in1010.2 mb - 0.00 in0.0 mm 0.14 in3.6 mm
07:20 PM 45.5°F7.5°C 43.0°F6.1°C 91% 5.8 mph SE9.3 kmh SE 9.2 mph14.8 kmh 29.83 in1010.2 mb - 0.02 in0.5 mm 0.14 in3.6 mm
07:10 PM 45.5°F7.5°C 43.0°F6.1°C 91% 5.8 mph SE9.3 kmh SE 8.1 mph13.0 kmh 29.84 in1010.5 mb - 0.00 in0.0 mm 0.13 in3.3 mm
07:00 PM 45.6°F7.6°C 43.1°F6.2°C 91% 2.3 mph SSW3.7 kmh SSW 3.5 mph5.6 kmh 29.84 in1010.5 mb - 0.01 in0.3 mm 0.13 in3.3 mm
06:50 PM 45.6°F7.6°C 43.1°F6.2°C 91% 5.8 mph ESE9.3 kmh ESE 8.1 mph13.0 kmh 29.85 in1010.8 mb - 0.01 in0.3 mm 0.12 in3.0 mm
06:40 PM 45.4°F7.4°C 42.9°F6.1°C 91% Calm Calm -- 29.86 in1011.2 mb - 0.01 in0.3 mm 0.12 in3.0 mm
06:30 PM 45.4°F7.4°C 42.9°F6.1°C 91% Calm Calm 3.5 mph5.6 kmh 29.86 in1011.2 mb - 0.00 in0.0 mm 0.11 in2.8 mm
06:20 PM 45.3°F7.4°C 42.8°F6.0°C 91% 1.2 mph ENE1.9 kmh ENE 2.3 mph3.7 kmh 29.87 in1011.5 mb - 0.00 in0.0 mm 0.11 in2.8 mm
06:10 PM 45.3°F7.4°C 42.8°F6.0°C 91% 2.3 mph SSE3.7 kmh SSE 3.5 mph5.6 kmh 29.87 in1011.5 mb - 0.00 in0.0 mm 0.11 in2.8 mm
06:00 PM 45.3°F7.4°C 42.8°F6.0°C 91% 2.3 mph SSE3.7 kmh SSE 3.5 mph5.6 kmh 29.87 in1011.5 mb - 0.00 in0.0 mm 0.11 in2.8 mm
05:50 PM 45.4°F7.4°C 42.9°F6.1°C 91% 5.8 mph SE9.3 kmh SE 8.1 mph13.0 kmh 29.87 in1011.5 mb - 0.01 in0.3 mm 0.11 in2.8 mm
05:40 PM 45.4°F7.4°C 42.9°F6.1°C 91% 4.6 mph SE7.4 kmh SE 6.9 mph11.1 kmh 29.87 in1011.5 mb - 0.00 in0.0 mm 0.10 in2.5 mm
05:30 PM 45.4°F7.4°C 42.9°F6.1°C 91% 3.5 mph SE5.6 kmh SE 6.9 mph11.1 kmh 29.87 in1011.5 mb - 0.00 in0.0 mm 0.10 in2.5 mm
05:20 PM 45.5°F7.5°C 43.0°F6.1°C 91% 3.5 mph SE5.6 kmh SE 4.6 mph7.4 kmh 29.88 in1011.9 mb - 0.00 in0.0 mm 0.10 in2.5 mm
05:10 PM 45.5°F7.5°C 43.0°F6.1°C 91% 4.6 mph ESE7.4 kmh ESE 4.6 mph7.4 kmh 29.88 in1011.9 mb - 0.00 in0.0 mm 0.10 in2.5 mm
05:00 PM 45.5°F7.5°C 43.0°F6.1°C 91% 3.5 mph SE5.6 kmh SE 5.8 mph9.3 kmh 29.89 in1012.2 mb - 0.00 in0.0 mm 0.10 in2.5 mm
04:50 PM 45.6°F7.6°C 43.1°F6.2°C 91% 3.5 mph E5.6 kmh E 4.6 mph7.4 kmh 29.90 in1012.5 mb - 0.01 in0.3 mm 0.10 in2.5 mm
04:40 PM 45.6°F7.6°C 43.1°F6.2°C 91% 2.3 mph SE3.7 kmh SE 3.5 mph5.6 kmh 29.90 in1012.5 mb - 0.00 in0.0 mm 0.09 in2.3 mm
04:30 PM 45.7°F7.6°C 43.2°F6.2°C 91% 3.5 mph SE5.6 kmh SE 4.6 mph7.4 kmh 29.91 in1012.9 mb - 0.00 in0.0 mm 0.09 in2.3 mm
04:20 PM 45.8°F7.7°C 43.3°F6.3°C 91% 4.6 mph SE7.4 kmh SE 5.8 mph9.3 kmh 29.92 in1013.2 mb - 0.00 in0.0 mm 0.09 in2.3 mm
04:10 PM 45.8°F7.7°C 43.3°F6.3°C 91% 3.5 mph ESE5.6 kmh ESE 4.6 mph7.4 kmh 29.92 in1013.2 mb - 0.00 in0.0 mm 0.09 in2.3 mm
04:00 PM 45.9°F7.7°C 43.4°F6.3°C 91% 3.5 mph ESE5.6 kmh ESE 4.6 mph7.4 kmh 29.93 in1013.5 mb - 0.00 in0.0 mm 0.09 in2.3 mm
03:50 PM 46.0°F7.8°C 43.5°F6.4°C 91% 2.3 mph SE3.7 kmh SE 3.5 mph5.6 kmh 29.93 in1013.5 mb - 0.00 in0.0 mm 0.09 in2.3 mm
03:40 PM 46.1°F7.8°C 43.6°F6.4°C 91% 1.2 mph SE1.9 kmh SE 2.3 mph3.7 kmh 29.93 in1013.5 mb - 0.00 in0.0 mm 0.09 in2.3 mm
03:30 PM 46.2°F7.9°C 43.7°F6.5°C 91% 2.3 mph SE3.7 kmh SE 3.5 mph5.6 kmh 29.93 in1013.5 mb - 0.00 in0.0 mm 0.09 in2.3 mm
03:20 PM 46.3°F7.9°C 43.8°F6.6°C 91% Calm Calm -- 29.94 in1013.9 mb - 0.00 in0.0 mm 0.09 in2.3 mm
03:10 PM 46.3°F7.9°C 43.8°F6.6°C 91% Calm Calm -- 29.94 in1013.9 mb - 0.00 in0.0 mm 0.09 in2.3 mm
03:00 PM 46.3°F7.9°C 43.8°F6.6°C 91% 2.3 mph S3.7 kmh S 3.5 mph5.6 kmh 29.93 in1013.5 mb - 0.00 in0.0 mm 0.09 in2.3 mm
02:50 PM 46.4°F8.0°C 43.9°F6.6°C 91% Calm Calm 2.3 mph3.7 kmh 29.95 in1014.2 mb - 0.00 in0.0 mm 0.09 in2.3 mm
02:40 PM 46.4°F8.0°C 43.9°F6.6°C 91% 3.5 mph SE5.6 kmh SE 6.9 mph11.1 kmh 29.95 in1014.2 mb - 0.00 in0.0 mm 0.09 in2.3 mm
02:30 PM 46.4°F8.0°C 43.9°F6.6°C 91% 1.2 mph SW1.9 kmh SW 2.3 mph3.7 kmh 29.96 in1014.6 mb - 0.00 in0.0 mm 0.09 in2.3 mm
02:20 PM 46.5°F8.1°C 44.0°F6.7°C 91% 1.2 mph SW1.9 kmh SW 1.2 mph1.9 kmh 29.96 in1014.6 mb - 0.00 in0.0 mm 0.09 in2.3 mm
02:10 PM 46.5°F8.1°C 44.0°F6.7°C 91% Calm Calm 1.2 mph1.9 kmh 29.95 in1014.2 mb - 0.00 in0.0 mm 0.09 in2.3 mm
02:00 PM 46.4°F8.0°C 43.9°F6.6°C 91% Calm Calm -- 29.96 in1014.6 mb - 0.00 in0.0 mm 0.09 in2.3 mm
01:50 PM 46.4°F8.0°C 43.9°F6.6°C 91% Calm Calm 1.2 mph1.9 kmh 29.96 in1014.6 mb - 0.00 in0.0 mm 0.09 in2.3 mm
01:40 PM 46.4°F8.0°C 43.9°F6.6°C 91% 2.3 mph SE3.7 kmh SE 2.3 mph3.7 kmh 29.95 in1014.2 mb - 0.00 in0.0 mm 0.09 in2.3 mm
01:30 PM 46.5°F8.1°C 44.0°F6.7°C 91% 1.2 mph WNW1.9 kmh WNW 2.3 mph3.7 kmh 29.96 in1014.6 mb - 0.00 in0.0 mm 0.09 in2.3 mm
01:20 PM 46.6°F8.1°C 44.1°F6.7°C 91% Calm Calm -- 29.96 in1014.6 mb - 0.00 in0.0 mm 0.09 in2.3 mm
01:10 PM 46.7°F8.2°C 44.2°F6.8°C 91% Calm Calm -- 29.95 in1014.2 mb - 0.00 in0.0 mm 0.09 in2.3 mm
01:00 PM 46.7°F8.2°C 44.2°F6.8°C 91% Calm Calm -- 29.96 in1014.6 mb - 0.00 in0.0 mm 0.09 in2.3 mm
12:50 PM 46.7°F8.2°C 44.2°F6.8°C 91% Calm Calm -- 29.96 in1014.6 mb - 0.00 in0.0 mm 0.09 in2.3 mm
12:40 PM 46.7°F8.2°C 44.2°F6.8°C 91% Calm Calm -- 29.96 in1014.6 mb - 0.00 in0.0 mm 0.09 in2.3 mm
12:30 PM 46.8°F8.2°C 44.3°F6.8°C 91% Calm Calm -- 29.97 in1014.9 mb - 0.00 in0.0 mm 0.09 in2.3 mm
12:20 PM 46.9°F8.3°C 44.4°F6.9°C 91% Calm Calm -- 29.97 in1014.9 mb - 0.00 in0.0 mm 0.09 in2.3 mm
12:10 PM 46.8°F8.2°C 44.3°F6.8°C 91% Calm Calm -- 29.97 in1014.9 mb - 0.00 in0.0 mm 0.09 in2.3 mm
12:00 PM 46.8°F8.2°C 44.3°F6.8°C 91% Calm Calm -- 29.97 in1014.9 mb - 0.00 in0.0 mm 0.09 in2.3 mm
11:50 AM 46.7°F8.2°C 44.2°F6.8°C 91% Calm Calm -- 29.97 in1014.9 mb - 0.00 in0.0 mm 0.09 in2.3 mm
11:40 AM 46.8°F8.2°C 44.3°F6.8°C 91% Calm Calm -- 29.97 in1014.9 mb - 0.00 in0.0 mm 0.09 in2.3 mm
11:30 AM 46.9°F8.3°C 44.4°F6.9°C 91% Calm Calm -- 29.97 in1014.9 mb - 0.00 in0.0 mm 0.09 in2.3 mm
11:20 AM 46.9°F8.3°C 44.4°F6.9°C 91% Calm Calm -- 29.98 in1015.2 mb - 0.00 in0.0 mm 0.09 in2.3 mm
11:10 AM 46.9°F8.3°C 44.4°F6.9°C 91% Calm Calm -- 29.98 in1015.2 mb - 0.00 in0.0 mm 0.09 in2.3 mm
11:00 AM 46.9°F8.3°C 44.4°F6.9°C 91% Calm Calm -- 29.98 in1015.2 mb - 0.00 in0.0 mm 0.09 in2.3 mm
10:50 AM 46.8°F8.2°C 44.4°F6.9°C 91% Calm Calm -- 29.98 in1015.2 mb - 0.00 in0.0 mm 0.09 in2.3 mm
10:40 AM 46.8°F8.2°C 44.3°F6.8°C 91% Calm Calm -- 29.98 in1015.2 mb - 0.00 in0.0 mm 0.09 in2.3 mm
10:30 AM 46.8°F8.2°C 44.3°F6.8°C 91% 1.2 mph WNW1.9 kmh WNW 2.3 mph3.7 kmh 29.98 in1015.2 mb - 0.00 in0.0 mm 0.09 in2.3 mm
10:20 AM 46.9°F8.3°C 44.4°F6.9°C 91% 2.3 mph WNW3.7 kmh WNW 3.5 mph5.6 kmh 29.98 in1015.2 mb - 0.00 in0.0 mm 0.09 in2.3 mm
10:10 AM 46.8°F8.2°C 44.3°F6.8°C 91% 1.2 mph WNW1.9 kmh WNW 2.3 mph3.7 kmh 29.98 in1015.2 mb - 0.00 in0.0 mm 0.09 in2.3 mm
10:00 AM 46.8°F8.2°C 44.3°F6.8°C 91% 1.2 mph WNW1.9 kmh WNW 3.5 mph5.6 kmh 29.99 in1015.6 mb - 0.00 in0.0 mm 0.09 in2.3 mm
09:50 AM 46.8°F8.2°C 44.3°F6.8°C 91% 1.2 mph WNW1.9 kmh WNW 3.5 mph5.6 kmh 29.99 in1015.6 mb - 0.00 in0.0 mm 0.09 in2.3 mm
09:40 AM 46.8°F8.2°C 44.3°F6.8°C 91% 2.3 mph WNW3.7 kmh WNW 3.5 mph5.6 kmh 29.99 in1015.6 mb - 0.00 in0.0 mm 0.09 in2.3 mm
09:30 AM 46.8°F8.2°C 44.3°F6.8°C 91% 2.3 mph WNW3.7 kmh WNW 4.6 mph7.4 kmh 29.98 in1015.2 mb - 0.00 in0.0 mm 0.09 in2.3 mm
09:20 AM 46.8°F8.2°C 44.3°F6.8°C 91% 2.3 mph WNW3.7 kmh WNW 3.5 mph5.6 kmh 29.98 in1015.2 mb - 0.00 in0.0 mm 0.09 in2.3 mm
09:10 AM 46.8°F8.2°C 44.3°F6.8°C 91% 2.3 mph W3.7 kmh W 3.5 mph5.6 kmh 29.97 in1014.9 mb - 0.01 in0.3 mm 0.09 in2.3 mm
09:00 AM 46.9°F8.3°C 44.4°F6.9°C 91% 3.5 mph NW5.6 kmh NW 5.8 mph9.3 kmh 29.97 in1014.9 mb - 0.00 in0.0 mm 0.09 in2.3 mm
08:50 AM 46.9°F8.3°C 44.4°F6.9°C 91% 3.5 mph WNW5.6 kmh WNW 4.6 mph7.4 kmh 29.97 in1014.9 mb - 0.00 in0.0 mm 0.09 in2.3 mm
08:40 AM 46.9°F8.3°C 44.4°F6.9°C 91% 5.8 mph WNW9.3 kmh WNW 8.1 mph13.0 kmh 29.98 in1015.2 mb - 0.00 in0.0 mm 0.09 in2.3 mm
08:30 AM 46.9°F8.3°C 44.4°F6.9°C 91% 6.9 mph WNW11.1 kmh WNW 8.1 mph13.0 kmh 29.98 in1015.2 mb - 0.00 in0.0 mm 0.09 in2.3 mm
08:20 AM 46.8°F8.2°C 44.3°F6.8°C 91% 4.6 mph WNW7.4 kmh WNW 5.8 mph9.3 kmh 29.98 in1015.2 mb - 0.01 in0.3 mm 0.09 in2.3 mm
08:10 AM 46.6°F8.1°C 44.1°F6.7°C 91% 3.5 mph WNW5.6 kmh WNW 4.6 mph7.4 kmh 29.98 in1015.2 mb - 0.01 in0.3 mm 0.08 in2.0 mm
08:00 AM 46.4°F8.0°C 43.9°F6.6°C 91% 1.2 mph NNW1.9 kmh NNW 3.5 mph5.6 kmh 29.98 in1015.2 mb - 0.01 in0.3 mm 0.07 in1.8 mm
07:50 AM 46.4°F8.0°C 43.9°F6.6°C 91% 2.3 mph WNW3.7 kmh WNW 3.5 mph5.6 kmh 29.98 in1015.2 mb - 0.00 in0.0 mm 0.06 in1.5 mm
07:40 AM 46.5°F8.1°C 44.0°F6.7°C 91% 3.5 mph NW5.6 kmh NW 3.5 mph5.6 kmh 29.98 in1015.2 mb - 0.01 in0.3 mm 0.06 in1.5 mm
07:30 AM 46.7°F8.2°C 44.2°F6.8°C 91% 3.5 mph NW5.6 kmh NW 5.8 mph9.3 kmh 29.98 in1015.2 mb - 0.01 in0.3 mm 0.06 in1.5 mm
07:20 AM 46.8°F8.2°C 44.3°F6.8°C 91% 5.8 mph WNW9.3 kmh WNW 9.2 mph14.8 kmh 29.97 in1014.9 mb - 0.00 in0.0 mm 0.05 in1.3 mm
07:10 AM 47.0°F8.3°C 44.5°F6.9°C 91% 6.9 mph NW11.1 kmh NW 6.9 mph11.1 kmh 29.97 in1014.9 mb - 0.01 in0.3 mm 0.05 in1.3 mm
07:00 AM 47.0°F8.3°C 44.5°F6.9°C 91% 5.8 mph WNW9.3 kmh WNW 6.9 mph11.1 kmh 29.98 in1015.2 mb - 0.00 in0.0 mm 0.04 in1.0 mm
06:50 AM 47.0°F8.3°C 44.5°F6.9°C 91% 4.6 mph W7.4 kmh W 8.1 mph13.0 kmh 29.97 in1014.9 mb - 0.00 in0.0 mm 0.04 in1.0 mm
06:40 AM 47.0°F8.3°C 44.5°F6.9°C 91% 3.5 mph NW5.6 kmh NW 4.6 mph7.4 kmh 29.97 in1014.9 mb - 0.01 in0.3 mm 0.04 in1.0 mm
06:30 AM 46.9°F8.3°C 44.4°F6.9°C 91% 4.6 mph W7.4 kmh W 3.5 mph5.6 kmh 29.97 in1014.9 mb - 0.02 in0.5 mm 0.03 in0.8 mm
06:20 AM 47.0°F8.3°C 44.5°F6.9°C 91% 4.6 mph W7.4 kmh W 6.9 mph11.1 kmh 29.97 in1014.9 mb - 0.00 in0.0 mm 0.02 in0.5 mm
06:10 AM 47.0°F8.3°C 44.5°F6.9°C 91% 4.6 mph NW7.4 kmh NW 8.1 mph13.0 kmh 29.97 in1014.9 mb - 0.00 in0.0 mm 0.02 in0.5 mm
06:00 AM 47.1°F8.4°C 44.6°F7.0°C 91% 4.6 mph NW7.4 kmh NW 4.6 mph7.4 kmh 29.96 in1014.6 mb - 0.00 in0.0 mm 0.02 in0.5 mm
05:50 AM 47.2°F8.4°C 44.7°F7.1°C 91% 4.6 mph W7.4 kmh W 8.1 mph13.0 kmh 29.96 in1014.6 mb - 0.00 in0.0 mm 0.02 in0.5 mm
05:40 AM 46.4°F8.0°C 45.3°F7.4°C 96% 1.2 mph W1.9 kmh W 4.6 mph7.4 kmh 29.96 in1014.6 mb - 0.00 in0.0 mm 0.02 in0.5 mm
05:30 AM 46.4°F8.0°C 45.3°F7.4°C 96% 1.2 mph WSW1.9 kmh WSW 3.5 mph5.6 kmh 29.96 in1014.6 mb - 0.00 in0.0 mm 0.02 in0.5 mm
05:20 AM 46.4°F8.0°C 45.3°F7.4°C 96% 2.3 mph NW3.7 kmh NW 4.6 mph7.4 kmh 29.96 in1014.6 mb - 0.00 in0.0 mm 0.02 in0.5 mm
05:10 AM 46.4°F8.0°C 45.6°F7.6°C 97% 2.3 mph NNW3.7 kmh NNW 3.5 mph5.6 kmh 29.96 in1014.6 mb - 0.00 in0.0 mm 0.02 in0.5 mm
05:00 AM 46.4°F8.0°C 45.6°F7.6°C 97% Calm Calm 2.3 mph3.7 kmh 29.96 in1014.6 mb - 0.00 in0.0 mm 0.02 in0.5 mm
04:50 AM 46.4°F8.0°C 45.6°F7.6°C 97% 1.2 mph NNW1.9 kmh NNW 3.5 mph5.6 kmh 29.96 in1014.6 mb - 0.00 in0.0 mm 0.02 in0.5 mm
04:40 AM 46.3°F7.9°C 45.5°F7.5°C 97% 1.2 mph WNW1.9 kmh WNW 5.8 mph9.3 kmh 29.96 in1014.6 mb - 0.00 in0.0 mm 0.02 in0.5 mm
04:30 AM 46.3°F7.9°C 45.5°F7.5°C 97% 2.3 mph NW3.7 kmh NW 4.6 mph7.4 kmh 29.96 in1014.6 mb - 0.00 in0.0 mm 0.02 in0.5 mm
04:20 AM 46.2°F7.9°C 45.4°F7.4°C 97% 2.3 mph W3.7 kmh W 3.5 mph5.6 kmh 29.96 in1014.6 mb - 0.00 in0.0 mm 0.02 in0.5 mm
04:10 AM 46.2°F7.9°C 45.4°F7.4°C 97% 1.2 mph NW1.9 kmh NW 3.5 mph5.6 kmh 29.96 in1014.6 mb - 0.00 in0.0 mm 0.02 in0.5 mm
04:00 AM 46.1°F7.8°C 45.3°F7.4°C 97% 2.3 mph NNW3.7 kmh NNW 2.3 mph3.7 kmh 29.96 in1014.6 mb - 0.01 in0.3 mm 0.02 in0.5 mm
03:50 AM 46.1°F7.8°C 45.3°F7.4°C 97% 1.2 mph NW1.9 kmh NW 3.5 mph5.6 kmh 29.97 in1014.9 mb - 0.01 in0.3 mm 0.01 in0.3 mm
03:40 AM 46.0°F7.8°C 45.2°F7.3°C 97% 2.3 mph NW3.7 kmh NW 5.8 mph9.3 kmh 29.97 in1014.9 mb - 0.00 in0.0 mm 0.00 in0.0 mm
03:30 AM 45.9°F7.7°C 45.4°F7.4°C 98% 1.2 mph WSW1.9 kmh WSW 3.5 mph5.6 kmh 29.97 in1014.9 mb - 0.00 in0.0 mm 0.00 in0.0 mm
03:20 AM 45.8°F7.7°C 45.3°F7.4°C 98% 3.5 mph WSW5.6 kmh WSW 8.1 mph13.0 kmh 29.97 in1014.9 mb - 0.00 in0.0 mm 0.00 in0.0 mm
03:10 AM 45.8°F7.7°C 45.3°F7.4°C 98% Calm Calm 1.2 mph1.9 kmh 29.97 in1014.9 mb - 0.00 in0.0 mm 0.00 in0.0 mm
03:00 AM 45.7°F7.6°C 45.2°F7.3°C 98% Calm Calm 1.2 mph1.9 kmh 29.97 in1014.9 mb - 0.00 in0.0 mm 0.00 in0.0 mm
02:50 AM 45.6°F7.6°C 45.0°F7.2°C 98% 1.2 mph W1.9 kmh W 5.8 mph9.3 kmh 29.97 in1014.9 mb - 0.00 in0.0 mm 0.00 in0.0 mm
02:40 AM 45.3°F7.4°C 44.8°F7.1°C 98% Calm Calm 3.5 mph5.6 kmh 29.96 in1014.6 mb - 0.00 in0.0 mm 0.00 in0.0 mm
02:30 AM 44.9°F7.2°C 44.4°F6.9°C 98% Calm Calm 2.3 mph3.7 kmh 29.97 in1014.9 mb - 0.00 in0.0 mm 0.00 in0.0 mm
02:20 AM 44.6°F7.0°C 44.1°F6.7°C 98% Calm Calm -- 29.96 in1014.6 mb - 0.00 in0.0 mm 0.00 in0.0 mm
02:10 AM 44.5°F6.9°C 44.0°F6.7°C 98% Calm Calm -- 29.97 in1014.9 mb - 0.00 in0.0 mm 0.00 in0.0 mm
02:00 AM 44.3°F6.8°C 43.8°F6.6°C 98% Calm Calm -- 29.97 in1014.9 mb - 0.00 in0.0 mm 0.00 in0.0 mm
01:50 AM 44.0°F6.7°C 43.5°F6.4°C 98% Calm Calm -- 29.97 in1014.9 mb - 0.00 in0.0 mm 0.00 in0.0 mm
01:40 AM 44.3°F6.8°C 43.8°F6.6°C 98% Calm Calm -- 29.97 in1014.9 mb - 0.00 in0.0 mm 0.00 in0.0 mm
01:30 AM 43.6°F6.4°C 43.1°F6.2°C 98% Calm Calm -- 29.97 in1014.9 mb - 0.00 in0.0 mm 0.00 in0.0 mm
01:20 AM 43.6°F6.4°C 42.8°F6.0°C 97% Calm Calm -- 29.97 in1014.9 mb - 0.00 in0.0 mm 0.00 in0.0 mm
01:10 AM 43.9°F6.6°C 43.1°F6.2°C 97% Calm Calm -- 29.98 in1015.2 mb - 0.00 in0.0 mm 0.00 in0.0 mm
01:00 AM 44.0°F6.7°C 43.5°F6.4°C 98% Calm Calm -- 29.98 in1015.2 mb - 0.00 in0.0 mm 0.00 in0.0 mm
12:50 AM 44.0°F6.7°C 43.4°F6.3°C 98% Calm Calm -- 29.98 in1015.2 mb - 0.00 in0.0 mm 0.00 in0.0 mm
12:40 AM 43.9°F6.6°C 43.4°F6.3°C 98% Calm Calm 2.3 mph3.7 kmh 29.98 in1015.2 mb - 0.00 in0.0 mm 0.00 in0.0 mm
12:30 AM 43.0°F6.1°C 42.2°F5.7°C 97% Calm Calm -- 29.98 in1015.2 mb - 0.00 in0.0 mm 0.00 in0.0 mm
12:20 AM 43.1°F6.2°C 42.3°F5.7°C 97% Calm Calm -- 29.98 in1015.2 mb - 0.00 in0.0 mm 0.00 in0.0 mm
12:10 AM 43.5°F6.4°C 42.7°F5.9°C 97% Calm Calm -- 29.98 in1015.2 mb - 0.00 in0.0 mm 0.00 in0.0 mm
12:00 AM 43.2°F6.2°C 42.4°F5.8°C 97% Calm Calm -- 29.98 in1015.2 mb - 0.00 in0.0 mm 0.00 in0.0 mm